Federal Clyde — V7NK4 — position and weather

sailwx.info

Track history (hours):
 
Tides and Currents Weather Stations Pressure Air Temp Water Temp Dewpoint Dewpoint Depression Visibility Wind Speed Wind Dir Waves Ship Positions

Federal Clyde

Last reported at 2018-Jun-21 04:00 UTC. Time now 2018-Jun-22 13:24 UTC.
Position N 49°06' W 067°06'.

Length 200 m; draft 8.4 m.

Type: Cargo ship. MMSI: 538006470.

Wind from 320 at 19 knots

Barometer 1001.0 mb
Air temperature 13.0 ° C
Visibility: greater than 5.4 NM
Dewpoint 7.4 ° C

Date/timePositionNaut miles runAvg speedWind from/ knotsBaromVisibWave heightAir tempDewpointWater temp
2018-Jun-21 04:00N 49°06' W 067°06'43 8.7 320 / 191001.0 5.4 13.0 7.4
2018-Jun-20 23:00N 48°48' W 068°06'17113.9 310 / 191000.0 27.0-0.9
2018-Jun-20 10:45N 46°50' W 071°10'9112.8
2018-Jun-20 03:37N 46°04' W 073°04'113.0
2018-Jun-20 03:31N 46°04' W 073°06'510.3
2018-Jun-20 02:59N 45°59' W 073°11'612.4
2018-Jun-20 02:30N 45°54' W 073°14'713.1
2018-Jun-20 02:00N 45°48' W 073°19'713.1
2018-Jun-20 01:29N 45°43' W 073°26'612.5
2018-Jun-20 01:00N 45°38' W 073°29'4 0.3
2018-Jun-19 12:54N 45°34' W 073°31'3 6.9
2018-Jun-19 12:25N 45°30' W 073°31'1 2.2
2018-Jun-19 12:00N 45°30' W 073°31'0 0.5
2018-Jun-19 11:30N 45°29' W 073°31'2 4.9
2018-Jun-19 11:01N 45°27' W 073°30'3 5.8
2018-Jun-19 10:30N 45°24' W 073°32'1 2.4
2018-Jun-19 10:00N 45°24' W 073°34'1 1.5
2018-Jun-19 09:31N 45°24' W 073°35'3 5.6
2018-Jun-19 09:00N 45°24' W 073°39'3 5.4
2018-Jun-19 08:30N 45°25' W 073°43'510.1
2018-Jun-19 08:00N 45°22' W 073°49'510.4
2018-Jun-19 07:30N 45°19' W 073°55'0 0.6
2018-Jun-19 07:01N 45°19' W 073°55'1 1.4
2018-Jun-19 06:30N 45°18' W 073°56'1 1.1
2018-Jun-19 06:00N 45°18' W 073°56'3 5.7
2018-Jun-19 05:31N 45°15' W 073°58'6 9.4
2018-Jun-19 04:50N 45°14' W 074°07'411.4
2018-Jun-19 04:29N 45°14' W 074°12'  
Track history (hours):
 
Tides and Currents Weather Stations Pressure Air Temp Water Temp Dewpoint Dewpoint Depression Visibility Wind Speed Wind Dir Waves Ship Positions

Federal Clyde

Last reported at 2018-Jun-21 04:00 UTC. Time now 2018-Jun-22 13:24 UTC.
Position N 49°06' W 067°06'.

Length 200 m; draft 8.4 m.

Type: Cargo ship. MMSI: 538006470.

Wind from 320 at 19 knots

Barometer 1001.0 mb
Air temperature 13.0 ° C
Visibility: greater than 5.4 NM
Dewpoint 7.4 ° C

Date/timePositionNaut miles runAvg speedWind from/ knotsBaromVisibWave heightAir tempDewpointWater temp
2018-Jun-21 04:00N 49°06' W 067°06'43 8.7 320 / 191001.0 5.4 13.0 7.4
2018-Jun-20 23:00N 48°48' W 068°06'17113.9 310 / 191000.0 27.0-0.9
2018-Jun-20 10:45N 46°50' W 071°10'9112.8
2018-Jun-20 03:37N 46°04' W 073°04'113.0
2018-Jun-20 03:31N 46°04' W 073°06'510.3
2018-Jun-20 02:59N 45°59' W 073°11'612.4
2018-Jun-20 02:30N 45°54' W 073°14'713.1
2018-Jun-20 02:00N 45°48' W 073°19'713.1
2018-Jun-20 01:29N 45°43' W 073°26'612.5
2018-Jun-20 01:00N 45°38' W 073°29'4 0.3
2018-Jun-19 12:54N 45°34' W 073°31'3 6.9
2018-Jun-19 12:25N 45°30' W 073°31'1 2.2
2018-Jun-19 12:00N 45°30' W 073°31'0 0.5
2018-Jun-19 11:30N 45°29' W 073°31'2 4.9
2018-Jun-19 11:01N 45°27' W 073°30'3 5.8
2018-Jun-19 10:30N 45°24' W 073°32'1 2.4
2018-Jun-19 10:00N 45°24' W 073°34'1 1.5
2018-Jun-19 09:31N 45°24' W 073°35'3 5.6
2018-Jun-19 09:00N 45°24' W 073°39'3 5.4
2018-Jun-19 08:30N 45°25' W 073°43'510.1
2018-Jun-19 08:00N 45°22' W 073°49'510.4
2018-Jun-19 07:30N 45°19' W 073°55'0 0.6
2018-Jun-19 07:01N 45°19' W 073°55'1 1.4
2018-Jun-19 06:30N 45°18' W 073°56'1 1.1
2018-Jun-19 06:00N 45°18' W 073°56'3 5.7
2018-Jun-19 05:31N 45°15' W 073°58'6 9.4
2018-Jun-19 04:50N 45°14' W 074°07'411.4
2018-Jun-19 04:29N 45°14' W 074°12'  

Dump ship's entire track history